Погода Пёнкина 2 недели

Мазовецкое воеводство, Польша

24 июля-06 августа
  • 24июля
    Сегодня
    +14°
    +26°
    Облачно с прояснениями
    ВремяПогодаТемператураВлажностьДавлениеВетер, м/сВероятность осадков
    02:00Ясно и безоблачно+14°C83 %747 мм0.7 м/с2 %
    05:00Облачно с прояснениями+12°C88 %746 мм0.6 м/с2 %
    08:00Практически безоблачно+20°C66 %746 мм1.1 м/с3 %
    11:00Небольшая облачность+25°C46 %746 мм2.1 м/с16 %
    14:00Облачно с прояснениями+26°C36 %744 мм2.8 м/с22 %
    17:00Облачно с прояснениями+23°C36 %743 мм2.3 м/с27 %
    20:00Пасмурно, сплошная облачность+21°C60 %744 мм2.1 м/с39 %
    23:00Пасмурно, ливень+16°C87 %744 мм1.1 м/с62 %
  • 25июля
    Четверг
    +12°
    +21°
    Облачно с прояснениями, небольшой дождь
    ВремяПогодаТемператураВлажностьДавлениеВетер, м/сВероятность осадков
    02:00Пасмурно, дождь+15°C93 %744 мм1.6 м/с65 %
    05:00Пасмурно, дождь+15°C93 %744 мм1.7 м/с60 %
    08:00Пасмурно, дождь+17°C90 %744 мм2.2 м/с77 %
    11:00Пасмурно, небольшой дождь+18°C76 %745 мм2.6 м/с84 %
    14:00Облачно с прояснениями, небольшой дождь+20°C59 %744 мм2.9 м/с60 %
    17:00Облачно с прояснениями+20°C70 %744 мм2.5 м/с50 %
    20:00Небольшая облачность+19°C67 %744 мм1.6 м/с26 %
    23:00Небольшая облачность+15°C80 %745 мм1.0 м/с10 %
  • 26июля
    Пятница
    +10°
    +24°
    Облачно с прояснениями
    ВремяПогодаТемператураВлажностьДавлениеВетер, м/сВероятность осадков
    02:00Практически безоблачно+14°C81 %745 мм1.6 м/с7 %
    05:00Ясно и безоблачно+13°C88 %745 мм1.4 м/с10 %
    08:00Практически безоблачно+18°C80 %746 мм2.0 м/с10 %
    11:00Облачно с прояснениями+21°C57 %746 мм2.5 м/с29 %
    14:00Облачно с прояснениями+22°C59 %747 мм2.2 м/с38 %
    17:00Облачно с прояснениями+24°C57 %747 мм2.1 м/с27 %
    20:00Ясно и безоблачно+21°C75 %747 мм1.0 м/с9 %
    23:00Практически безоблачно+17°C85 %748 мм0.5 м/с2 %
  • 27июля
    Суббота
    +16°
    +28°
    Ясно и безоблачно
    ВремяПогодаТемператураВлажностьДавлениеВетер, м/сВероятность осадков
    02:00Ясно и безоблачно+13°C95 %748 мм1.0 м/с2 %
    05:00Ясно и безоблачно+11°C95 %748 мм0.7 м/с2 %
    08:00Ясно и безоблачно+20°C73 %749 мм1.3 м/с2 %
    11:00Небольшая облачность+26°C55 %749 мм2.1 м/с2 %
    14:00Ясно и безоблачно+28°C45 %749 мм2.4 м/с5 %
    17:00Ясно и безоблачно+28°C45 %749 мм2.7 м/с2 %
    20:00Облачно с прояснениями+24°C54 %749 мм1.5 м/с2 %
    23:00Небольшая облачность+19°C64 %749 мм1.1 м/с2 %
  • 28июля
    Воскресенье
    +12°
    +28°
    Ясно и безоблачно
    ВремяПогодаТемператураВлажностьДавлениеВетер, м/сВероятность осадков
    02:00Облачно с прояснениями+17°C67 %749 мм1.7 м/с2 %
    05:00Практически безоблачно+16°C72 %748 мм1.5 м/с2 %
    08:00Ясно и безоблачно+22°C61 %749 мм1.6 м/с2 %
    11:00Ясно и безоблачно+27°C37 %749 мм2.8 м/с11 %
    14:00Ясно и безоблачно+27°C35 %748 мм2.9 м/с28 %
    17:00Практически безоблачно+25°C51 %749 мм2.7 м/с38 %
    20:00Практически безоблачно+21°C74 %750 мм2.3 м/с27 %
    23:00Практически безоблачно+15°C86 %750 мм1.4 м/с16 %
Мы используем cookies
Соглашаюсь